Time;durP1;ratioP1;P1;durP2;ratioP2;P2;SDS_P1;SDS_P2;PMS_P1;PMS_P2;Temp;Humidity;BMP_temperature;BMP_pressure;BME280_temperature;BME280_humidity;BME280_pressure;Samples;Min_cycle;Max_cycle;Signal;HPM_P1;HPM_P2
2022/05/10 00:01:35;;;;;;;12.45;4.65;;;13.60;99.90;;;;;;6368372;22;20338;-75
2022/05/10 00:04:03;;;;;;;11.45;4.82;;;13.50;99.90;;;;;;6370170;22;20025;-71
2022/05/10 00:06:33;;;;;;;12.40;4.63;;;13.50;99.90;;;;;;6370142;22;20042;-75
2022/05/10 00:08:59;;;;;;;15.30;5.07;;;13.50;99.90;;;;;;6368494;22;20021;-75
2022/05/10 00:11:26;;;;;;;14.52;4.85;;;13.50;99.90;;;;;;6368550;22;20373;-74
2022/05/10 00:13:53;;;;;;;13.50;5.25;;;13.50;99.90;;;;;;6368428;22;20060;-71
2022/05/10 00:16:18;;;;;;;14.05;5.10;;;13.40;99.90;;;;;;6368112;22;20007;-74
2022/05/10 00:18:45;;;;;;;11.60;4.90;;;13.40;99.90;;;;;;6370269;22;20458;-75
2022/05/10 00:21:13;;;;;;;11.60;4.45;;;13.40;99.90;;;;;;6370702;22;20022;-75
2022/05/10 00:23:39;;;;;;;13.77;5.93;;;13.40;99.90;;;;;;6369767;22;20063;-74
2022/05/10 00:26:05;;;;;;;13.73;5.32;;;13.40;99.90;;;;;;6369569;22;20014;-71
2022/05/10 00:28:30;;;;;;;12.18;5.00;;;13.30;99.90;;;;;;6369478;22;20029;-74
2022/05/10 00:30:56;;;;;;;10.23;4.22;;;13.30;99.90;;;;;;6368899;22;20043;-75
2022/05/10 00:33:28;;;;;;;11.65;4.50;;;13.40;99.90;;;;;;6369493;22;20392;-72
2022/05/10 00:35:55;;;;;;;13.82;5.28;;;13.40;99.90;;;;;;6371052;22;20017;-71
2022/05/10 00:38:31;;;;;;;14.45;4.60;;;13.40;99.90;;;;;;6367907;22;20022;-68
2022/05/10 00:41:07;;;;;;;12.90;4.82;;;13.40;99.90;;;;;;6369313;22;20049;-75
2022/05/10 00:43:40;;;;;;;13.48;4.82;;;13.40;99.90;;;;;;6370009;22;20046;-74
2022/05/10 00:46:28;;;;;;;14.75;4.57;;;13.40;99.90;;;;;;6369761;22;20018;-66
2022/05/10 00:48:59;;;;;;;11.52;4.35;;;13.40;99.90;;;;;;6369333;22;20044;-68
2022/05/10 00:51:38;;;;;;;11.13;4.78;;;13.50;99.90;;;;;;6367927;22;20100;-71
2022/05/10 00:54:22;;;;;;;11.60;4.45;;;13.50;99.90;;;;;;6367733;22;20059;-67
2022/05/10 00:56:55;;;;;;;11.70;4.70;;;13.50;99.90;;;;;;6369370;22;20050;-68
2022/05/10 00:59:35;;;;;;;12.52;4.70;;;13.50;99.90;;;;;;6367653;22;20393;-69
2022/05/10 01:02:11;;;;;;;14.93;4.97;;;13.50;99.90;;;;;;6367686;22;20027;-69
2022/05/10 01:04:46;;;;;;;11.60;5.00;;;13.50;99.90;;;;;;6367780;22;20022;-75
2022/05/10 01:07:15;;;;;;;11.00;5.07;;;13.40;99.90;;;;;;6369577;22;20014;-70
2022/05/10 01:09:43;;;;;;;11.82;4.53;;;13.50;99.90;;;;;;6369470;22;20066;-73
2022/05/10 01:12:15;;;;;;;11.25;4.80;;;13.40;99.90;;;;;;6367804;22;20015;-69
2022/05/10 01:14:47;;;;;;;;;;;13.30;99.90;;;;;;6370168;22;20459;-75
2022/05/10 01:17:13;;;;;;;11.88;5.15;;;13.20;99.90;;;;;;6369240;22;19950;-67
2022/05/10 01:19:41;;;;;;;11.32;4.75;;;13.20;99.90;;;;;;6367552;22;20025;-69
2022/05/10 01:22:27;;;;;;;10.60;5.07;;;13.20;99.90;;;;;;6369041;22;20067;-68
2022/05/10 01:25:02;;;;;;;11.98;4.55;;;13.10;99.90;;;;;;6272381;22;20441;-73
2022/05/10 01:27:43;;;;;;;11.57;4.70;;;13.10;99.90;;;;;;6272450;22;20072;-70
2022/05/10 01:30:32;;;;;;;9.52;4.80;;;13.10;99.90;;;;;;6272928;22;20016;-67
2022/05/10 01:36:09;;;;;;;11.02;4.70;;;13.10;99.90;;;;;;6211600;23;20200;-70
2022/05/10 01:38:45;;;;;;;10.30;4.82;;;13.00;99.90;;;;;;6211948;23;20520;-75
2022/05/10 01:41:38;;;;;;;10.35;4.90;;;13.00;99.90;;;;;;6211703;23;20615;-69
2022/05/10 01:44:26;;;;;;;10.98;4.70;;;13.00;99.90;;;;;;6211856;23;20037;-74
2022/05/10 01:46:59;;;;;;;12.88;4.80;;;13.10;99.90;;;;;;6156215;23;20025;-68
2022/05/10 01:49:46;;;;;;;14.30;5.38;;;13.10;99.90;;;;;;6181403;23;20185;-67
2022/05/10 01:52:18;;;;;;;12.88;5.57;;;13.00;99.90;;;;;;6181606;23;20013;-75
2022/05/10 01:54:46;;;;;;;12.40;5.07;;;13.00;99.90;;;;;;6156808;23;20510;-68
2022/05/10 01:57:16;;;;;;;11.02;5.05;;;13.10;99.90;;;;;;6181603;23;20013;-70
2022/05/10 01:59:48;;;;;;;12.50;5.25;;;13.00;99.90;;;;;;6181796;23;20147;-70
2022/05/10 02:02:18;;;;;;;14.45;6.13;;;13.20;99.90;;;;;;6236763;22;20022;-72
2022/05/10 02:04:47;;;;;;;14.55;5.82;;;12.90;99.90;;;;;;6272380;22;20091;-72
2022/05/10 02:07:17;;;;;;;12.52;6.28;;;13.00;99.90;;;;;;6272571;22;20087;-71
2022/05/10 02:09:44;;;;;;;12.07;5.78;;;13.00;99.90;;;;;;6246839;22;20057;-75
2022/05/10 02:12:32;;;;;;;13.02;6.28;;;12.90;99.90;;;;;;6246948;22;20020;-70
2022/05/10 02:15:13;;;;;;;12.30;6.20;;;12.80;99.90;;;;;;6247041;22;20019;-74
2022/05/10 02:18:01;;;;;;;14.77;6.20;;;12.80;99.90;;;;;;6247577;22;20045;-70
2022/05/10 02:21:00;;;;;;;14.77;7.10;;;12.80;99.90;;;;;;6246850;22;20020;-67
2022/05/10 02:23:31;;;;;;;14.93;6.60;;;12.80;99.90;;;;;;6299413;22;20456;-73
2022/05/10 02:26:04;;;;;;;16.40;6.70;;;12.80;99.90;;;;;;6369012;22;20024;-70
2022/05/10 02:29:06;;;;;;;13.52;6.93;;;12.80;99.90;;;;;;6369099;22;20249;-72
2022/05/10 02:34:33;;;;;;;17.15;7.82;;;12.70;99.90;;;;;;6246805;22;20302;-68
2022/05/10 02:36:59;;;;;;;18.75;7.40;;;12.70;99.90;;;;;;6272544;22;20106;-69
2022/05/10 02:39:24;;;;;;;15.40;7.13;;;12.70;99.90;;;;;;6272560;22;20023;-68
2022/05/10 02:41:50;;;;;;;17.77;7.25;;;12.70;99.90;;;;;;6246767;22;20042;-69
2022/05/10 02:44:17;;;;;;;17.67;8.38;;;12.70;99.90;;;;;;6246746;22;20019;-74
2022/05/10 02:46:42;;;;;;;14.77;7.97;;;12.70;99.90;;;;;;6246740;22;20012;-75
2022/05/10 02:49:08;;;;;;;15.48;7.88;;;12.70;99.90;;;;;;6272055;22;20461;-70
2022/05/10 02:51:34;;;;;;;17.23;8.52;;;12.70;99.90;;;;;;6246903;22;20174;-74
2022/05/10 02:53:59;;;;;;;22.05;8.55;;;12.70;99.90;;;;;;6273627;22;20016;-69
2022/05/10 02:56:27;;;;;;;15.82;8.80;;;12.60;99.90;;;;;;6274421;22;20059;-69
2022/05/10 02:59:15;;;;;;;17.27;9.38;;;12.80;99.90;;;;;;6274095;22;20499;-74
2022/05/10 03:01:51;;;;;;;17.58;9.35;;;12.70;99.90;;;;;;6274103;22;20019;-69
2022/05/10 03:04:17;;;;;;;19.02;9.52;;;12.70;99.90;;;;;;6248054;22;20016;-73
2022/05/10 03:06:46;;;;;;;15.18;8.80;;;12.60;99.90;;;;;;6259714;22;20050;-74
2022/05/10 03:09:12;;;;;;;18.88;10.18;;;12.70;99.90;;;;;;6368962;22;20025;-74
2022/05/10 03:11:39;;;;;;;16.23;9.23;;;12.70;99.90;;;;;;6370578;22;20458;-72
2022/05/10 03:14:06;;;;;;;18.95;10.88;;;12.70;99.90;;;;;;6368599;22;20019;-75
2022/05/10 03:16:32;;;;;;;19.52;11.15;;;12.70;99.90;;;;;;6370755;22;20007;-70
2022/05/10 03:18:58;;;;;;;18.95;11.07;;;12.70;99.90;;;;;;6368243;22;20306;-74
2022/05/10 03:21:24;;;;;;;19.67;11.20;;;12.70;99.90;;;;;;6370281;22;20376;-75
2022/05/10 03:23:50;;;;;;;19.48;11.57;;;12.70;99.90;;;;;;6370578;22;20049;-73
2022/05/10 03:26:22;;;;;;;19.88;10.95;;;12.70;99.90;;;;;;6368358;22;20025;-68
2022/05/10 03:28:48;;;;;;;20.93;12.13;;;12.70;99.90;;;;;;6368384;22;20375;-75
2022/05/10 03:31:17;;;;;;;18.38;11.35;;;12.70;99.90;;;;;;6368771;22;20345;-75
2022/05/10 03:33:43;;;;;;;22.23;12.63;;;12.60;99.90;;;;;;6367635;22;20015;-75
2022/05/10 03:36:09;;;;;;;20.17;12.43;;;12.70;99.90;;;;;;6369751;22;20011;-75
2022/05/10 03:38:36;;;;;;;20.63;13.15;;;12.70;99.90;;;;;;6370091;22;20471;-69
2022/05/10 03:41:03;;;;;;;18.63;12.25;;;12.80;99.90;;;;;;6367963;22;20018;-74
2022/05/10 03:43:29;;;;;;;22.17;13.55;;;12.70;99.90;;;;;;6370225;22;20010;-71
2022/05/10 03:45:55;;;;;;;20.92;13.00;;;12.80;99.90;;;;;;6369064;22;20027;-74
2022/05/10 03:48:21;;;;;;;21.40;14.10;;;12.90;99.90;;;;;;6370204;22;20459;-74
2022/05/10 03:50:47;;;;;;;20.67;12.82;;;12.90;99.90;;;;;;6370077;22;20011;-67
2022/05/10 03:53:13;;;;;;;25.90;13.13;;;12.90;99.90;;;;;;6370391;22;20081;-67
2022/05/10 03:55:38;;;;;;;23.30;13.25;;;12.90;99.90;;;;;;6370588;22;20339;-68
2022/05/10 03:58:05;;;;;;;21.35;13.63;;;12.90;99.90;;;;;;6370270;22;20006;-74
2022/05/10 04:00:30;;;;;;;23.90;12.82;;;12.90;99.90;;;;;;6370363;22;20093;-68
2022/05/10 04:02:57;;;;;;;23.08;14.10;;;13.00;99.90;;;;;;6368639;22;20048;-66
2022/05/10 04:05:25;;;;;;;23.23;13.20;;;13.00;99.90;;;;;;6368081;22;20371;-71
2022/05/10 04:07:50;;;;;;;23.83;14.27;;;13.00;99.90;;;;;;6341902;22;20010;-74
2022/05/10 04:10:18;;;;;;;22.70;13.07;;;13.00;99.90;;;;;;6369676;22;20375;-73
2022/05/10 04:12:43;;;;;;;19.08;12.77;;;13.00;99.90;;;;;;6370201;22;20017;-72
2022/05/10 04:15:14;;;;;;;23.48;14.52;;;13.00;99.90;;;;;;6366907;22;20091;-68
2022/05/10 04:17:42;;;;;;;21.60;13.20;;;13.00;99.90;;;;;;6342571;22;20089;-68
2022/05/10 04:20:09;;;;;;;23.48;14.63;;;13.00;99.90;;;;;;6369491;22;20748;-67
2022/05/10 04:22:35;;;;;;;22.33;13.10;;;13.00;99.90;;;;;;6369701;22;20093;-69
2022/05/10 04:25:01;;;;;;;23.88;13.43;;;13.00;99.90;;;;;;6367828;22;20053;-75
2022/05/10 04:27:26;;;;;;;22.73;13.85;;;13.00;99.90;;;;;;6367960;22;20049;-69
2022/05/10 04:29:52;;;;;;;22.25;13.02;;;13.10;99.90;;;;;;6367859;22;20033;-74
2022/05/10 04:32:17;;;;;;;22.90;13.60;;;13.10;99.90;;;;;;6369944;22;20105;-72
2022/05/10 04:34:43;;;;;;;23.45;14.23;;;13.30;99.90;;;;;;6369506;22;20339;-73
2022/05/10 04:37:09;;;;;;;25.85;14.23;;;13.10;99.90;;;;;;6369854;22;20014;-68
2022/05/10 04:42:19;;;;;;;21.08;12.55;;;13.20;99.90;;;;;;6369667;22;20018;-68
2022/05/10 04:44:44;;;;;;;22.23;14.88;;;13.20;99.90;;;;;;6369457;22;20044;-71
2022/05/10 04:47:10;;;;;;;24.73;13.68;;;13.20;99.90;;;;;;6341187;22;20015;-71
2022/05/10 04:49:36;;;;;;;22.17;13.25;;;13.20;99.90;;;;;;6369280;22;20388;-75
2022/05/10 04:52:02;;;;;;;22.02;12.95;;;13.20;99.90;;;;;;6367534;22;20093;-73
2022/05/10 04:54:28;;;;;;;23.10;14.02;;;13.30;99.90;;;;;;6369635;22;20344;-76
2022/05/10 04:56:53;;;;;;;23.42;13.52;;;13.30;99.90;;;;;;6369357;22;20010;-75
2022/05/10 04:59:19;;;;;;;23.00;14.02;;;13.30;99.90;;;;;;6367648;22;20022;-69
2022/05/10 05:01:45;;;;;;;24.90;13.57;;;13.30;99.90;;;;;;6368273;22;20096;-70
2022/05/10 05:04:11;;;;;;;26.02;13.88;;;13.30;99.90;;;;;;6369949;22;20070;-69
2022/05/10 05:06:39;;;;;;;22.08;13.13;;;13.40;99.90;;;;;;6367114;22;20010;-75
2022/05/10 05:09:06;;;;;;;22.02;13.52;;;13.40;99.90;;;;;;6340780;22;20386;-68
2022/05/10 05:11:32;;;;;;;24.77;14.00;;;13.30;99.90;;;;;;6369372;22;20044;-75
2022/05/10 05:13:57;;;;;;;27.10;14.45;;;13.90;99.90;;;;;;6369632;22;20010;-76
2022/05/10 05:16:23;;;;;;;24.95;13.18;;;13.50;99.90;;;;;;6367384;22;20321;-72
2022/05/10 05:18:49;;;;;;;23.30;14.02;;;13.50;99.90;;;;;;6364276;22;20328;-76
2022/05/10 05:21:15;;;;;;;23.15;14.18;;;13.50;99.90;;;;;;6365940;22;20093;-74
2022/05/10 05:23:41;;;;;;;23.08;14.23;;;13.60;99.90;;;;;;6368012;22;20025;-73
2022/05/10 05:26:06;;;;;;;23.88;14.30;;;13.70;99.90;;;;;;6368841;22;20021;-69
2022/05/10 05:28:32;;;;;;;24.05;14.25;;;13.80;99.90;;;;;;6366017;22;20329;-71
2022/05/10 05:30:59;;;;;;;22.02;13.60;;;13.80;99.90;;;;;;6369164;22;20010;-71
2022/05/10 05:33:25;;;;;;;21.98;13.00;;;13.90;99.90;;;;;;6367357;22;20018;-76
2022/05/10 05:35:51;;;;;;;25.38;13.30;;;13.90;99.90;;;;;;6369124;22;20424;-74
2022/05/10 05:38:17;;;;;;;24.20;14.77;;;14.00;99.90;;;;;;6368214;22;20019;-73
2022/05/10 05:40:43;;;;;;;22.45;14.38;;;14.00;99.90;;;;;;6367979;22;20371;-76
2022/05/10 05:43:16;;;;;;;23.88;13.52;;;14.10;99.90;;;;;;6367347;22;20336;-72
2022/05/10 05:45:41;;;;;;;23.67;14.07;;;14.10;99.90;;;;;;6368054;22;20105;-75
2022/05/10 05:48:07;;;;;;;24.45;13.85;;;14.10;99.90;;;;;;6368273;22;20060;-74
2022/05/10 05:50:33;;;;;;;26.90;13.57;;;14.10;99.90;;;;;;6367218;22;20024;-70
2022/05/10 05:52:58;;;;;;;20.98;13.60;;;14.10;99.90;;;;;;6366084;22;20050;-68
2022/05/10 05:55:25;;;;;;;28.70;14.00;;;14.20;99.90;;;;;;6368910;22;20054;-71
2022/05/10 05:57:51;;;;;;;21.85;13.25;;;14.30;99.90;;;;;;6367596;22;20057;-74
2022/05/10 06:00:20;;;;;;;26.95;13.75;;;14.30;99.90;;;;;;6368943;22;20015;-71
2022/05/10 06:02:46;;;;;;;24.60;14.90;;;14.40;99.90;;;;;;6369501;22;20017;-75
2022/05/10 06:05:12;;;;;;;22.90;14.77;;;14.50;99.90;;;;;;6367394;22;20037;-70
2022/05/10 06:07:37;;;;;;;25.50;14.52;;;14.50;99.90;;;;;;6369003;22;20014;-73
2022/05/10 06:10:04;;;;;;;23.27;14.73;;;14.60;99.90;;;;;;6369180;22;20019;-73
2022/05/10 06:12:30;;;;;;;22.25;14.10;;;14.70;99.90;;;;;;6369288;22;20309;-73
2022/05/10 06:14:56;;;;;;;24.00;15.00;;;14.80;99.90;;;;;;6369332;22;20025;-69
2022/05/10 06:17:23;;;;;;;24.00;15.27;;;14.80;99.90;;;;;;6368871;22;20059;-78
2022/05/10 06:19:55;;;;;;;23.70;14.73;;;14.90;99.90;;;;;;6366708;22;20022;-74
2022/05/10 06:22:24;;;;;;;29.20;15.25;;;14.90;99.90;;;;;;6366639;22;20104;-68
2022/05/10 06:24:49;;;;;;;22.35;14.63;;;15.00;99.90;;;;;;6368420;22;20014;-76
2022/05/10 06:27:17;;;;;;;23.73;14.60;;;15.00;99.90;;;;;;6367988;22;20018;-77
2022/05/10 06:29:43;;;;;;;23.27;14.55;;;15.20;99.90;;;;;;6370543;22;20386;-76
2022/05/10 06:32:11;;;;;;;23.83;13.63;;;15.20;99.90;;;;;;6370403;22;20018;-72
2022/05/10 06:34:39;;;;;;;20.92;13.80;;;15.30;99.90;;;;;;6370157;22;20017;-73
2022/05/10 06:38:15;;;;;;;23.30;15.23;;;15.40;99.90;;;;;;6370707;22;20022;-76
2022/05/10 06:39:51;;;;;;;27.45;16.17;;;15.50;99.90;;;;;;6369391;22;20018;-73
2022/05/10 06:42:22;;;;;;;22.25;13.40;;;15.70;99.90;;;;;;6371009;22;20018;-71
2022/05/10 06:44:47;;;;;;;23.95;14.43;;;15.80;99.90;;;;;;6368574;22;20049;-77
2022/05/10 06:47:13;;;;;;;25.63;14.57;;;15.80;99.90;;;;;;6371008;22;20010;-70
2022/05/10 06:49:39;;;;;;;21.50;14.18;;;15.90;99.90;;;;;;6370528;22;20021;-75
2022/05/10 06:52:04;;;;;;;23.70;14.55;;;16.00;99.90;;;;;;6370061;22;20011;-77
2022/05/10 06:54:30;;;;;;;20.73;14.05;;;16.20;99.90;;;;;;6370265;22;20350;-76
2022/05/10 06:56:55;;;;;;;25.17;15.07;;;16.70;99.90;;;;;;6370175;22;20009;-79
2022/05/10 06:59:21;;;;;;;24.45;13.40;;;16.40;99.90;;;;;;6371577;22;20444;-71
2022/05/10 07:01:47;;;;;;;21.02;13.57;;;16.80;99.90;;;;;;6370955;22;20045;-69
2022/05/10 07:04:12;;;;;;;20.20;13.75;;;16.90;99.90;;;;;;6370430;22;20018;-71
2022/05/10 07:06:38;;;;;;;22.15;14.15;;;17.00;99.90;;;;;;6369217;22;20089;-73
2022/05/10 07:09:03;;;;;;;22.50;12.80;;;17.20;99.90;;;;;;6370641;22;20045;-79
2022/05/10 07:11:29;;;;;;;19.85;12.30;;;17.40;99.90;;;;;;6370814;22;20074;-72
2022/05/10 07:13:55;;;;;;;17.42;11.02;;;17.70;99.90;;;;;;6370309;22;20018;-70
2022/05/10 07:16:20;;;;;;;16.30;10.50;;;17.80;99.90;;;;;;6370276;22;20021;-79
2022/05/10 07:18:46;;;;;;;17.75;11.10;;;17.90;99.90;;;;;;6369054;22;20022;-71
2022/05/10 07:21:11;;;;;;;18.52;10.80;;;18.10;99.90;;;;;;6369108;22;20025;-69
2022/05/10 07:23:37;;;;;;;15.93;8.85;;;18.20;99.90;;;;;;6369486;22;20332;-79
2022/05/10 07:26:04;;;;;;;14.57;8.88;;;18.30;99.90;;;;;;6366419;22;20018;-70
2022/05/10 07:28:30;;;;;;;18.70;9.60;;;18.50;99.90;;;;;;6361596;22;20093;-70
2022/05/10 07:30:57;;;;;;;17.48;8.93;;;18.50;99.90;;;;;;6362696;22;20114;-68
2022/05/10 07:33:24;;;;;;;20.58;8.57;;;18.70;99.90;;;;;;6361013;22;20025;-78
2022/05/10 07:38:35;;;;;;;19.35;8.43;;;19.00;99.90;;;;;;6359822;22;20033;-68
2022/05/10 07:41:00;;;;;;;15.00;8.27;;;19.30;99.90;;;;;;6360482;22;20351;-68
2022/05/10 07:43:27;;;;;;;17.30;9.02;;;19.50;99.90;;;;;;6359406;22;20049;-66
2022/05/10 07:45:54;;;;;;;23.27;7.50;;;19.70;99.90;;;;;;6358850;22;20431;-72
2022/05/10 07:48:20;;;;;;;20.83;7.85;;;20.00;99.90;;;;;;6358857;22;20135;-72
2022/05/10 07:50:46;;;;;;;23.05;7.53;;;20.20;99.90;;;;;;6358325;22;20025;-77
2022/05/10 07:53:13;;;;;;;22.40;8.00;;;20.30;99.90;;;;;;6360371;22;20006;-74
2022/05/10 07:55:39;;;;;;;15.07;6.78;;;20.50;99.90;;;;;;6359583;22;20021;-68
2022/05/10 07:58:06;;;;;;;16.55;6.55;;;20.60;99.90;;;;;;6361512;22;20064;-75
2022/05/10 08:00:33;;;;;;;15.63;6.63;;;20.60;99.90;;;;;;6361796;22;20018;-69
2022/05/10 08:02:59;;;;;;;15.02;6.35;;;20.80;99.90;;;;;;6359844;22;20082;-67
2022/05/10 08:05:25;;;;;;;23.67;6.43;;;20.90;99.90;;;;;;6361867;22;20443;-73
2022/05/10 08:07:51;;;;;;;16.60;6.60;;;21.10;99.90;;;;;;6360046;22;20048;-68
2022/05/10 08:10:19;;;;;;;16.45;6.15;;;21.20;99.90;;;;;;6361289;22;20392;-68
2022/05/10 08:12:45;;;;;;;17.63;6.50;;;21.30;99.90;;;;;;6359639;22;20017;-67
2022/05/10 08:15:11;;;;;;;18.70;6.32;;;21.40;99.90;;;;;;6359715;22;20021;-68
2022/05/10 08:17:38;;;;;;;13.43;6.10;;;21.50;99.90;;;;;;6360901;22;20018;-68
2022/05/10 08:20:05;;;;;;;13.85;6.57;;;21.60;99.90;;;;;;6360915;22;20060;-70
2022/05/10 08:22:31;;;;;;;16.30;6.57;;;21.70;99.90;;;;;;6361876;22;20010;-67
2022/05/10 08:24:57;;;;;;;15.05;6.38;;;21.90;99.90;;;;;;6358686;22;20343;-69
2022/05/10 08:27:23;;;;;;;14.15;5.68;;;22.00;99.90;;;;;;6360407;22;20026;-67
2022/05/10 08:29:49;;;;;;;16.67;6.03;;;22.20;99.90;;;;;;6360649;22;20033;-69
2022/05/10 08:32:15;;;;;;;14.00;5.38;;;22.20;99.90;;;;;;6360336;22;20022;-70
2022/05/10 08:34:41;;;;;;;20.48;5.50;;;22.30;99.90;;;;;;6359040;22;20010;-76
2022/05/10 08:37:07;;;;;;;11.38;4.70;;;22.40;99.40;;;;;;6360116;22;20021;-73
2022/05/10 08:39:33;;;;;;;13.85;5.20;;;22.50;99.50;;;;;;6360076;22;20018;-67
2022/05/10 08:42:26;;;;;;;13.05;5.18;;;22.60;99.30;;;;;;6361206;22;20021;-67
2022/05/10 08:44:57;;;;;;;12.27;4.55;;;22.80;98.70;;;;;;6351965;22;20623;-70
2022/05/10 08:47:25;;;;;;;15.82;5.28;;;22.80;97.20;;;;;;6361405;22;20555;-74
2022/05/10 08:49:58;;;;;;;10.95;4.22;;;22.80;97.30;;;;;;6360725;22;20025;-72
2022/05/10 08:52:30;;;;;;;11.30;4.18;;;22.80;95.50;;;;;;6360719;22;20343;-71
2022/05/10 08:54:56;;;;;;;;;;;22.90;95.40;;;;;;6358835;22;20026;-69
2022/05/10 08:57:52;;;;;;;17.92;4.70;;;23.00;94.10;;;;;;6360126;22;19918;-71
2022/05/10 09:00:24;;;;;;;10.40;4.00;;;23.10;93.20;;;;;;6361079;22;20018;-75
2022/05/10 09:02:55;;;;;;;9.80;4.13;;;23.30;93.40;;;;;;6359716;22;20034;-68
2022/05/10 09:05:41;;;;;;;19.15;4.78;;;23.30;92.60;;;;;;6360587;22;20018;-74
2022/05/10 09:08:12;;;;;;;16.65;4.15;;;23.30;90.80;;;;;;6360449;22;20321;-69
2022/05/10 09:10:44;;;;;;;9.07;3.90;;;23.10;91.90;;;;;;6361139;22;20020;-73
2022/05/10 09:13:14;;;;;;;10.75;3.88;;;23.00;90.50;;;;;;6356647;22;20082;-70
2022/05/10 09:15:54;;;;;;;13.05;3.67;;;23.00;92.60;;;;;;6357916;22;20018;-69
2022/05/10 09:18:24;;;;;;;8.70;3.40;;;22.80;91.20;;;;;;6359039;22;20370;-70
2022/05/10 09:21:01;;;;;;;13.60;3.97;;;22.60;91.60;;;;;;6359357;22;20022;-68
2022/05/10 09:23:35;;;;;;;7.38;3.50;;;22.60;90.50;;;;;;6357821;22;20772;-70
2022/05/10 09:26:02;;;;;;;10.70;3.58;;;22.50;91.40;;;;;;6359243;22;20025;-68
2022/05/10 09:28:32;;;;;;;12.90;4.05;;;22.40;91.60;;;;;;6359715;22;20022;-73
2022/05/10 09:37:30;;;;;;;10.52;4.05;;;22.40;91.10;;;;;;6358959;22;20029;-73
2022/05/10 09:39:55;;;;;;;13.73;3.90;;;22.40;90.30;;;;;;6298518;22;20019;-76
2022/05/10 09:42:36;;;;;;;10.98;3.70;;;22.50;91.50;;;;;;6325538;22;20037;-74
2022/05/10 09:45:04;;;;;;;13.57;4.70;;;22.40;90.50;;;;;;6324276;22;20079;-75
2022/05/10 09:47:30;;;;;;;8.52;3.83;;;22.30;91.10;;;;;;6326897;22;20025;-74
2022/05/10 09:50:17;;;;;;;10.43;3.85;;;22.20;91.00;;;;;;6298034;22;20451;-74
2022/05/10 09:52:43;;;;;;;10.50;3.63;;;22.30;90.80;;;;;;6325921;22;20015;-76
2022/05/10 09:55:27;;;;;;;12.73;4.18;;;22.30;91.70;;;;;;6324151;22;20019;-73
2022/05/10 09:57:54;;;;;;;10.35;4.47;;;22.30;90.60;;;;;;6300201;22;20023;-75
2022/05/10 10:00:38;;;;;;;11.93;4.45;;;22.30;91.40;;;;;;6323055;22;20415;-75
2022/05/10 10:03:04;;;;;;;12.20;5.05;;;22.30;91.10;;;;;;6326694;22;20026;-73
2022/05/10 10:05:33;;;;;;;11.15;4.60;;;22.30;91.90;;;;;;6302324;22;20486;-75
2022/05/10 10:07:59;;;;;;;10.50;4.38;;;22.20;91.40;;;;;;6328184;22;20085;-76
2022/05/10 10:10:24;;;;;;;12.77;4.97;;;22.20;92.20;;;;;;6328100;22;20470;-75
2022/05/10 10:12:51;;;;;;;14.65;4.78;;;22.10;92.30;;;;;;6326820;22;20694;-74
2022/05/10 10:15:25;;;;;;;12.55;4.40;;;22.20;92.60;;;;;;6326754;22;20018;-74
2022/05/10 10:17:55;;;;;;;11.50;4.32;;;22.30;92.90;;;;;;6300600;22;20018;-75
2022/05/10 10:20:54;;;;;;;14.32;4.50;;;22.50;92.60;;;;;;6327783;22;20093;-73
2022/05/10 10:23:29;;;;;;;11.30;4.60;;;22.60;92.60;;;;;;6336853;22;20097;-75
2022/05/10 10:26:14;;;;;;;11.15;5.20;;;22.70;92.70;;;;;;6363421;22;20026;-76
2022/05/10 10:29:04;;;;;;;11.88;4.50;;;22.70;92.70;;;;;;6359733;22;20151;-74
2022/05/10 10:31:38;;;;;;;14.85;4.60;;;22.80;93.60;;;;;;6357184;22;20750;-73
2022/05/10 10:34:07;;;;;;;9.38;4.50;;;22.90;92.90;;;;;;6360205;22;20014;-76
2022/05/10 10:37:14;;;;;;;11.90;4.95;;;22.90;92.00;;;;;;6361477;22;20323;-75
2022/05/10 10:39:48;;;;;;;9.90;4.57;;;22.90;92.20;;;;;;6263135;22;20019;-76
2022/05/10 10:42:31;;;;;;;10.18;4.30;;;22.90;91.70;;;;;;6263551;22;20016;-75
2022/05/10 10:45:00;;;;;;;10.98;4.03;;;22.90;92.70;;;;;;6262468;22;20081;-72
2022/05/10 10:47:57;;;;;;;11.63;4.40;;;22.90;93.00;;;;;;6263562;22;20047;-76
2022/05/10 10:50:35;;;;;;;25.70;5.22;;;23.00;91.80;;;;;;6262896;22;20097;-72
2022/05/10 10:53:03;;;;;;;12.52;4.80;;;22.90;91.00;;;;;;6262956;22;20020;-74
2022/05/10 10:55:43;;;;;;;13.10;4.80;;;23.00;91.90;;;;;;6236745;22;20422;-73
2022/05/10 10:58:09;;;;;;;12.30;4.72;;;23.10;91.30;;;;;;6263152;22;20015;-72
2022/05/10 11:01:16;;;;;;;12.13;5.00;;;23.20;91.20;;;;;;6263536;22;20609;-75
2022/05/10 11:04:12;;;;;;;10.23;5.07;;;23.30;90.90;;;;;;6202101;23;20075;-75
2022/05/10 11:06:46;;;;;;;10.98;4.32;;;23.40;90.60;;;;;;6205069;23;20125;-73
2022/05/10 11:09:59;;;;;;;13.52;4.50;;;23.60;90.80;;;;;;6205660;23;20051;-77
2022/05/10 11:12:36;;;;;;;14.75;5.10;;;23.70;89.90;;;;;;6174547;23;20434;-68
2022/05/10 11:15:26;;;;;;;18.58;5.55;;;23.70;90.40;;;;;;6173277;23;20116;-67
2022/05/10 11:18:30;;;;;;;8.15;3.97;;;23.60;88.00;;;;;;6215604;22;20049;-69
2022/05/10 11:21:24;;;;;;;15.00;4.68;;;23.50;88.10;;;;;;6203773;23;20086;-70
2022/05/10 11:24:11;;;;;;;10.25;4.53;;;23.50;90.10;;;;;;6203303;23;20983;-69
2022/05/10 11:27:06;;;;;;;15.00;4.88;;;23.50;89.70;;;;;;6204893;23;20025;-68
2022/05/10 11:29:34;;;;;;;13.40;4.40;;;23.60;90.90;;;;;;6203937;23;20043;-67
2022/05/10 11:32:10;;;;;;;22.65;4.70;;;23.50;90.40;;;;;;6203747;23;20560;-67
2022/05/10 11:35:03;;;;;;;12.23;4.15;;;23.50;87.40;;;;;;6205371;23;20446;-68
2022/05/10 11:37:39;;;;;;;13.10;4.38;;;23.40;86.20;;;;;;6205162;23;20031;-69
2022/05/10 11:40:24;;;;;;;14.43;4.90;;;23.40;85.80;;;;;;6196636;23;20104;-69
2022/05/10 11:43:07;;;;;;;10.32;4.45;;;23.30;86.40;;;;;;6208386;22;20106;-75
2022/05/10 11:45:36;;;;;;;8.63;4.07;;;23.30;86.30;;;;;;6266549;22;20126;-70
2022/05/10 11:48:22;;;;;;;13.90;4.82;;;23.20;85.80;;;;;;6265374;22;20022;-77
2022/05/10 11:54:12;;;;;;;10.80;4.20;;;23.10;85.90;;;;;;6265070;22;20769;-69
2022/05/10 11:56:40;;;;;;;10.93;4.60;;;23.10;86.80;;;;;;6268505;22;20020;-68
2022/05/10 11:59:13;;;;;;;10.15;4.47;;;23.20;87.70;;;;;;6362709;22;20320;-70
2022/05/10 12:01:40;;;;;;;9.68;4.60;;;23.20;87.90;;;;;;6361962;22;20544;-69
2022/05/10 12:04:06;;;;;;;11.82;4.97;;;23.10;87.90;;;;;;6361277;22;20022;-70
2022/05/10 12:06:35;;;;;;;16.10;5.65;;;23.00;88.10;;;;;;6363675;22;20390;-69
2022/05/10 12:09:05;;;;;;;12.93;6.00;;;22.90;89.90;;;;;;6362726;22;20015;-73
2022/05/10 12:11:31;;;;;;;10.98;5.35;;;22.60;93.80;;;;;;6363515;22;20025;-79
2022/05/10 12:22:16;;;;;;;15.32;6.07;;;21.40;99.90;;;;;;6363989;22;20021;-82
2022/05/10 12:24:44;;;;;;;11.50;6.22;;;21.40;99.90;;;;;;6360585;22;20010;-71
2022/05/10 12:27:10;;;;;;;10.95;5.57;;;21.60;99.90;;;;;;6362217;22;20015;-72
2022/05/10 12:29:38;;;;;;;10.77;5.70;;;21.80;99.90;;;;;;6362538;22;20083;-67
2022/05/10 12:32:23;;;;;;;10.05;5.43;;;22.20;99.90;;;;;;6362826;22;20014;-71
2022/05/10 12:34:54;;;;;;;11.32;5.70;;;22.60;99.90;;;;;;6358705;22;20045;-69
2022/05/10 12:37:24;;;;;;;12.88;6.22;;;23.00;99.90;;;;;;6362612;22;20026;-79
2022/05/10 12:39:56;;;;;;;12.45;5.10;;;23.30;99.90;;;;;;6360992;22;20379;-71
2022/05/10 12:42:42;;;;;;;;;;;23.30;99.90;;;;;;6361530;22;20480;-70
2022/05/10 12:45:44;;;;;;;11.80;5.20;;;23.50;99.80;;;;;;6339699;22;19914;-69
2022/05/10 12:48:29;;;;;;;;;;;23.60;99.20;;;;;;6265791;22;20045;-68
2022/05/10 12:51:23;;;;;;;16.55;5.63;;;23.70;95.50;;;;;;6265133;22;19990;-68
2022/05/10 12:54:13;;;;;;;14.63;5.57;;;23.70;94.70;;;;;;6263604;22;20083;-67
2022/05/10 12:56:41;;;;;;;14.02;5.32;;;23.60;92.90;;;;;;6265745;22;20023;-73
2022/05/10 12:59:15;;;;;;;11.15;4.97;;;23.60;93.00;;;;;;6240582;22;20091;-72
2022/05/10 13:01:41;;;;;;;10.48;4.95;;;23.60;92.60;;;;;;6264502;22;20016;-73
2022/05/10 13:04:20;;;;;;;16.55;5.10;;;23.70;92.50;;;;;;6263422;22;20501;-75
2022/05/10 13:07:09;;;;;;;12.50;4.78;;;23.80;91.60;;;;;;6265759;22;20011;-79
2022/05/10 13:09:37;;;;;;;13.00;5.10;;;24.00;91.30;;;;;;6239508;22;20026;-75
2022/05/10 13:12:27;;;;;;;15.23;4.88;;;24.20;91.00;;;;;;6265383;22;20020;-76
2022/05/10 13:15:22;;;;;;;11.55;4.70;;;24.20;90.40;;;;;;6238992;22;20055;-72
2022/05/10 13:17:51;;;;;;;13.43;4.80;;;24.20;87.90;;;;;;6261939;22;20016;-70
2022/05/10 13:20:21;;;;;;;12.35;4.82;;;24.00;86.20;;;;;;6265110;22;20027;-71
2022/05/10 13:22:50;;;;;;;12.45;4.68;;;23.90;85.10;;;;;;6272837;22;20341;-71
2022/05/10 13:25:45;;;;;;;11.57;4.53;;;23.80;85.40;;;;;;6362248;22;20338;-69
2022/05/10 13:28:21;;;;;;;15.15;4.90;;;23.60;84.90;;;;;;6332987;22;20439;-71